createdAt,value
2022-11-23T00:00:47.458Z,21.30
2022-11-23T00:03:16.590Z,22.70
2022-11-23T00:05:45.759Z,20.87
2022-11-23T00:08:13.559Z,21.43
2022-11-23T00:10:41.941Z,20.83
2022-11-23T00:13:09.764Z,21.67
2022-11-23T00:15:37.726Z,21.50
2022-11-23T00:18:05.597Z,22.07
2022-11-23T00:20:33.451Z,21.73
2022-11-23T00:23:02.633Z,22.00
2022-11-23T00:25:30.455Z,20.67
2022-11-23T00:27:58.263Z,20.67
2022-11-23T00:30:26.170Z,21.90
2022-11-23T00:32:55.705Z,21.70
2022-11-23T00:35:24.003Z,21.47
2022-11-23T00:37:51.821Z,21.27
2022-11-23T00:40:21.069Z,21.83
2022-11-23T00:42:49.185Z,21.33
2022-11-23T00:45:17.219Z,20.63
2022-11-23T00:47:45.295Z,21.87
2022-11-23T00:50:13.190Z,20.47
2022-11-23T00:52:41.196Z,19.87
2022-11-23T00:55:09.560Z,21.77
2022-11-23T00:57:39.081Z,20.43
2022-11-23T01:00:13.225Z,19.80
2022-11-23T01:02:41.572Z,20.43
2022-11-23T01:05:10.083Z,20.87
2022-11-23T01:07:38.019Z,21.60
2022-11-23T01:10:08.076Z,20.77
2022-11-23T01:12:35.947Z,20.90
2022-11-23T01:15:05.651Z,20.67
2022-11-23T01:17:33.667Z,21.60
2022-11-23T01:20:01.508Z,21.00
2022-11-23T01:22:29.461Z,19.67
2022-11-23T01:24:57.313Z,20.00
2022-11-23T01:27:25.210Z,20.00
2022-11-23T01:29:52.996Z,21.40
2022-11-23T01:32:22.403Z,19.73
2022-11-23T01:34:50.261Z,20.77
2022-11-23T01:37:18.329Z,20.40
2022-11-23T01:39:48.943Z,20.07
2022-11-23T01:42:18.130Z,19.90
2022-11-23T01:44:46.141Z,21.03
2022-11-23T01:47:14.198Z,20.13
2022-11-23T01:49:49.346Z,20.80
2022-11-23T01:52:21.073Z,20.00
2022-11-23T01:54:51.553Z,19.87
2022-11-23T01:57:24.943Z,19.33
2022-11-23T01:59:54.149Z,18.80
2022-11-23T02:02:22.047Z,20.57
2022-11-23T02:04:58.158Z,19.03
2022-11-23T02:07:26.801Z,19.47
2022-11-23T02:09:55.061Z,19.33
2022-11-23T02:12:22.948Z,19.37
2022-11-23T02:14:51.130Z,19.90
2022-11-23T02:17:21.918Z,20.00
2022-11-23T02:19:58.861Z,19.43
2022-11-23T02:22:34.481Z,19.87
2022-11-23T02:25:08.582Z,19.07
2022-11-23T02:27:39.605Z,19.07
2022-11-23T02:30:11.211Z,18.57
2022-11-23T02:32:39.601Z,18.70
2022-11-23T02:35:07.836Z,19.20
2022-11-23T02:37:35.984Z,18.63
2022-11-23T02:40:12.410Z,19.23
2022-11-23T02:42:42.180Z,18.97
2022-11-23T02:45:19.406Z,19.60
2022-11-23T02:47:48.985Z,19.63
2022-11-23T02:50:17.028Z,19.07
2022-11-23T02:52:44.897Z,18.13
2022-11-23T02:55:16.039Z,18.17
2022-11-23T02:57:45.348Z,18.60
2022-11-23T03:00:14.336Z,19.83
2022-11-23T03:02:43.350Z,18.90
2022-11-23T03:05:13.021Z,19.60
2022-11-23T03:07:40.955Z,19.40
2022-11-23T03:10:12.631Z,19.87
2022-11-23T03:12:40.588Z,18.67
2022-11-23T03:15:11.370Z,18.80
2022-11-23T03:17:41.829Z,18.63
2022-11-23T03:20:13.558Z,19.07
2022-11-23T03:22:45.457Z,19.47
2022-11-23T03:25:15.418Z,19.07
2022-11-23T03:27:45.916Z,19.40
2022-11-23T03:30:16.417Z,19.40
2022-11-23T03:32:44.882Z,19.30
2022-11-23T03:35:12.685Z,19.43
2022-11-23T03:38:00.234Z,19.17
2022-11-23T03:40:28.278Z,19.43
2022-11-23T03:43:09.478Z,19.87
2022-11-23T03:45:38.727Z,19.13
2022-11-23T03:48:07.002Z,19.57
2022-11-23T03:50:35.109Z,19.77
2022-11-23T03:53:03.206Z,19.30
2022-11-23T03:55:31.192Z,18.93
2022-11-23T03:58:00.371Z,19.60
2022-11-23T04:00:32.774Z,19.23
2022-11-23T04:03:02.266Z,20.23
2022-11-23T04:05:48.911Z,19.17
2022-11-23T04:08:22.452Z,18.60
2022-11-23T04:10:51.168Z,18.83
2022-11-23T04:13:23.849Z,19.33
2022-11-23T04:15:51.764Z,16.93
2022-11-23T04:18:20.975Z,19.13
2022-11-23T04:20:49.828Z,18.57
2022-11-23T04:23:19.850Z,18.13
2022-11-23T04:25:49.929Z,17.93
2022-11-23T04:28:18.957Z,18.30
2022-11-23T04:30:49.056Z,18.70
2022-11-23T04:33:17.221Z,18.57
2022-11-23T04:35:46.832Z,19.23
2022-11-23T04:38:15.189Z,19.50
2022-11-23T04:40:43.865Z,18.30
2022-11-23T04:43:12.500Z,17.37
2022-11-23T04:45:41.170Z,18.17
2022-11-23T04:48:15.960Z,17.87
2022-11-23T04:50:46.900Z,17.43
2022-11-23T04:53:21.271Z,18.47
2022-11-23T04:55:50.472Z,17.43
2022-11-23T04:58:18.707Z,16.40
2022-11-23T05:00:51.800Z,17.60
2022-11-23T05:03:20.424Z,17.97
2022-11-23T05:05:49.605Z,17.80
2022-11-23T05:08:17.709Z,17.17
2022-11-23T05:11:21.410Z,17.20
2022-11-23T05:13:51.361Z,17.13
2022-11-23T05:16:19.456Z,16.73
2022-11-23T05:18:47.467Z,17.40
2022-11-23T05:21:16.763Z,17.40
2022-11-23T05:23:44.849Z,16.30
2022-11-23T05:26:13.095Z,17.40
2022-11-23T05:28:41.707Z,17.00
2022-11-23T05:31:13.923Z,17.90
2022-11-23T05:33:43.788Z,16.03
2022-11-23T05:36:13.798Z,17.07
2022-11-23T05:38:44.600Z,16.00
2022-11-23T05:41:22.245Z,16.37
2022-11-23T05:43:54.926Z,16.73
2022-11-23T05:46:27.260Z,15.03
2022-11-23T05:48:55.657Z,15.87
2022-11-23T05:51:24.887Z,16.77
2022-11-23T05:53:54.729Z,16.40
2022-11-23T05:56:38.783Z,16.07
2022-11-23T05:59:14.380Z,15.83
2022-11-23T06:01:45.928Z,15.73
2022-11-23T06:04:21.558Z,15.70
2022-11-23T06:06:49.601Z,15.63
2022-11-23T06:09:18.829Z,15.43
2022-11-23T06:11:48.631Z,15.30
2022-11-23T06:14:20.242Z,15.13
2022-11-23T06:16:48.927Z,14.77
2022-11-23T06:19:46.106Z,14.53
2022-11-23T06:22:15.247Z,14.60
2022-11-23T06:24:52.371Z,14.73
2022-11-23T06:27:36.132Z,14.37
2022-11-23T06:30:09.576Z,14.23
2022-11-23T06:32:38.504Z,14.23
2022-11-23T06:35:06.610Z,15.13
2022-11-23T06:37:38.539Z,14.83
2022-11-23T06:40:10.155Z,13.67
2022-11-23T06:42:39.892Z,14.10
2022-11-23T06:45:14.726Z,15.07
2022-11-23T06:47:43.759Z,14.97
2022-11-23T06:50:11.994Z,14.20
2022-11-23T06:52:40.277Z,14.97
2022-11-23T06:55:09.937Z,15.20
2022-11-23T06:57:37.811Z,14.17
2022-11-23T07:00:09.424Z,15.07
2022-11-23T07:02:39.355Z,14.03
2022-11-23T07:05:07.987Z,14.57
2022-11-23T07:07:37.668Z,13.97
2022-11-23T07:10:14.213Z,14.87
2022-11-23T07:12:47.795Z,14.50
2022-11-23T07:15:19.897Z,15.30
2022-11-23T07:17:47.830Z,14.33
2022-11-23T07:20:16.246Z,14.93
2022-11-23T07:22:45.779Z,15.07
2022-11-23T07:25:18.339Z,14.33
2022-11-23T07:27:46.272Z,14.93
2022-11-23T07:30:14.981Z,15.00
2022-11-23T07:32:42.966Z,15.87
2022-11-23T07:35:11.278Z,14.57
2022-11-23T07:37:41.029Z,15.23
2022-11-23T07:40:10.585Z,14.70
2022-11-23T07:42:45.023Z,14.67
2022-11-23T07:45:14.480Z,14.77
2022-11-23T07:47:46.503Z,14.37
2022-11-23T07:50:15.253Z,14.83
2022-11-23T07:52:43.047Z,15.23
2022-11-23T07:55:11.252Z,14.70
2022-11-23T07:57:39.064Z,14.33
2022-11-23T08:00:10.288Z,15.10
2022-11-23T08:02:57.867Z,15.03
2022-11-23T08:05:29.526Z,14.10
2022-11-23T08:08:00.039Z,14.30
2022-11-23T08:10:28.596Z,14.87
2022-11-23T08:12:58.660Z,14.40
2022-11-23T08:15:29.058Z,13.93
2022-11-23T08:17:57.177Z,13.90
2022-11-23T08:20:25.186Z,14.20
2022-11-23T08:22:55.809Z,14.53
2022-11-23T08:25:24.350Z,14.20
2022-11-23T08:27:56.197Z,12.97
2022-11-23T08:30:24.153Z,14.03
2022-11-23T08:32:53.323Z,14.30
2022-11-23T08:35:21.651Z,13.90
2022-11-23T08:37:49.781Z,13.60
2022-11-23T08:40:23.643Z,13.90
2022-11-23T08:42:53.274Z,14.40
2022-11-23T08:45:21.394Z,13.47
2022-11-23T08:47:49.448Z,13.67
2022-11-23T08:50:19.088Z,13.63
2022-11-23T08:52:47.133Z,13.37
2022-11-23T08:55:15.140Z,14.23
2022-11-23T08:57:43.228Z,14.40
2022-11-23T09:00:11.840Z,13.43
2022-11-23T09:02:39.652Z,13.77
2022-11-23T09:05:07.952Z,13.50
2022-11-23T09:07:37.287Z,14.07
2022-11-23T09:10:06.428Z,13.80
2022-11-23T09:12:34.680Z,13.30
2022-11-23T09:15:02.576Z,13.00
2022-11-23T09:17:32.767Z,14.50
2022-11-23T09:20:00.845Z,13.87
2022-11-23T09:22:28.754Z,12.90
2022-11-23T09:24:58.146Z,12.73
2022-11-23T09:27:26.229Z,13.27
2022-11-23T09:29:54.260Z,14.07
2022-11-23T09:32:22.125Z,13.03
2022-11-23T09:34:50.093Z,12.83
2022-11-23T09:37:18.237Z,12.57
2022-11-23T09:39:46.083Z,12.70
2022-11-23T09:42:48.138Z,12.20
2022-11-23T09:45:23.517Z,12.53
2022-11-23T09:48:08.805Z,12.17
2022-11-23T09:50:47.421Z,12.60
2022-11-23T09:53:20.605Z,12.43
2022-11-23T09:55:51.316Z,11.00
2022-11-23T09:58:22.693Z,11.33
2022-11-23T10:00:56.736Z,12.40
2022-11-23T10:03:24.793Z,11.70
2022-11-23T10:06:02.905Z,11.63
2022-11-23T10:08:44.154Z,11.80
2022-11-23T10:11:31.926Z,11.77
2022-11-23T10:14:14.190Z,11.87
2022-11-23T10:16:52.274Z,11.33
2022-11-23T10:19:32.321Z,11.13
2022-11-23T10:22:09.221Z,11.70
2022-11-23T10:24:43.692Z,11.63
2022-11-23T10:27:16.467Z,10.17
2022-11-23T10:29:46.165Z,12.30
2022-11-23T10:32:26.019Z,11.40
2022-11-23T10:35:03.641Z,11.83
2022-11-23T10:37:32.600Z,11.70
2022-11-23T10:40:00.408Z,10.30
2022-11-23T10:42:33.381Z,10.63
2022-11-23T10:45:02.675Z,10.80
2022-11-23T10:47:39.690Z,10.10
2022-11-23T10:50:26.684Z,10.17
2022-11-23T10:52:56.787Z,10.30
2022-11-23T10:55:31.199Z,10.43
2022-11-23T10:57:59.380Z,10.60
2022-11-23T11:00:31.209Z,10.30
2022-11-23T11:03:02.436Z,11.00
2022-11-23T11:08:28.596Z,10.53
2022-11-23T11:11:00.806Z,10.00
2022-11-23T11:13:31.365Z,9.40
2022-11-23T11:16:02.949Z,10.07
2022-11-23T11:18:33.173Z,10.63
2022-11-23T11:21:05.630Z,9.93
2022-11-23T11:23:35.520Z,10.23
2022-11-23T11:26:18.094Z,9.67
2022-11-23T11:28:50.470Z,9.47
2022-11-23T11:31:48.461Z,10.00
2022-11-23T11:34:25.026Z,10.10
2022-11-23T11:37:00.934Z,10.13
2022-11-23T11:39:35.006Z,10.10
2022-11-23T11:42:07.562Z,9.90
2022-11-23T11:44:41.333Z,10.20
2022-11-23T11:47:24.017Z,10.00
2022-11-23T11:49:55.344Z,9.70
2022-11-23T11:52:26.645Z,10.30
2022-11-23T11:55:02.339Z,9.97
2022-11-23T11:57:36.268Z,9.87
2022-11-23T12:00:11.244Z,9.77
2022-11-23T12:02:50.077Z,10.30
2022-11-23T12:05:24.652Z,9.63
2022-11-23T12:08:01.945Z,9.27
2022-11-23T12:10:37.631Z,9.37
2022-11-23T12:13:05.628Z,9.03
2022-11-23T12:15:49.396Z,9.20
2022-11-23T12:18:43.917Z,9.00
2022-11-23T12:21:26.565Z,8.67
2022-11-23T12:24:04.025Z,9.17
2022-11-23T12:26:42.863Z,9.03
2022-11-23T12:29:27.066Z,9.10
2022-11-23T12:32:04.162Z,8.27
2022-11-23T12:34:49.052Z,8.50
2022-11-23T12:37:39.232Z,9.40
2022-11-23T12:40:34.553Z,9.07
2022-11-23T12:43:06.087Z,8.90
2022-11-23T12:46:05.469Z,9.07
2022-11-23T12:48:53.713Z,9.07
2022-11-23T12:51:31.566Z,9.73
2022-11-23T12:54:14.496Z,8.43
2022-11-23T12:57:09.490Z,8.83
2022-11-23T12:59:45.258Z,9.13
2022-11-23T13:02:29.959Z,8.83
2022-11-23T13:05:51.127Z,8.37
2022-11-23T13:08:40.332Z,7.73
2022-11-23T13:11:20.462Z,8.00
2022-11-23T13:14:02.776Z,7.93
2022-11-23T13:16:41.990Z,7.80
2022-11-23T13:19:30.571Z,7.47
2022-11-23T13:21:59.369Z,8.30
2022-11-23T13:24:31.717Z,7.40
2022-11-23T13:27:31.805Z,7.57
2022-11-23T13:30:01.168Z,7.50
2022-11-23T13:32:43.458Z,7.63
2022-11-23T13:35:44.683Z,7.40
2022-11-23T13:38:36.361Z,7.90
2022-11-23T13:41:38.179Z,7.70
2022-11-23T13:44:13.314Z,7.37
2022-11-23T13:46:42.359Z,7.97
2022-11-23T13:49:31.252Z,7.00
2022-11-23T13:52:16.812Z,7.97
2022-11-23T13:54:55.756Z,6.70
2022-11-23T13:57:25.259Z,7.70
2022-11-23T13:59:53.108Z,7.60
2022-11-23T14:02:30.388Z,7.37
2022-11-23T14:05:43.716Z,7.30
2022-11-23T14:08:13.665Z,7.60
2022-11-23T14:10:44.438Z,7.23
2022-11-23T14:13:19.143Z,7.73
2022-11-23T14:15:55.946Z,7.20
2022-11-23T14:18:54.080Z,6.77
2022-11-23T14:21:29.270Z,7.10
2022-11-23T14:24:24.301Z,6.67
2022-11-23T14:27:39.429Z,7.17
2022-11-23T14:30:23.530Z,6.80
2022-11-23T14:33:06.430Z,7.00
2022-11-23T14:35:44.617Z,7.27
2022-11-23T14:38:48.131Z,7.10
2022-11-23T14:41:18.641Z,7.30
2022-11-23T14:43:47.980Z,7.23
2022-11-23T14:46:19.902Z,7.30
2022-11-23T14:48:48.862Z,7.40
2022-11-23T14:51:19.585Z,7.20
2022-11-23T14:53:49.462Z,7.13
2022-11-23T14:56:32.223Z,7.00
2022-11-23T14:59:04.454Z,7.43
2022-11-23T15:01:34.919Z,7.03
2022-11-23T15:04:09.622Z,7.30
2022-11-23T15:06:45.525Z,6.83
2022-11-23T15:09:27.206Z,7.23
2022-11-23T15:12:07.304Z,7.37
2022-11-23T15:14:35.823Z,7.23
2022-11-23T15:17:26.636Z,7.37
2022-11-23T15:19:56.176Z,7.17
2022-11-23T15:22:25.108Z,7.40
2022-11-23T15:24:53.320Z,7.40
2022-11-23T15:27:28.175Z,7.37
2022-11-23T15:29:58.161Z,7.10
2022-11-23T15:32:33.426Z,7.23
2022-11-23T15:35:04.900Z,7.37
2022-11-23T15:37:35.990Z,7.00
2022-11-23T15:40:07.041Z,7.03
2022-11-23T15:42:34.966Z,7.53
2022-11-23T15:45:03.091Z,7.80
2022-11-23T15:47:32.595Z,7.70
2022-11-23T15:50:10.047Z,7.93
2022-11-23T15:52:39.218Z,7.47
2022-11-23T15:55:10.366Z,8.23
2022-11-23T15:57:39.916Z,7.90
2022-11-23T16:00:09.931Z,8.37
2022-11-23T16:02:43.870Z,8.80
2022-11-23T16:05:14.995Z,8.93
2022-11-23T16:07:54.210Z,8.23
2022-11-23T16:10:24.517Z,7.77
2022-11-23T16:12:54.001Z,8.90
2022-11-23T16:15:43.416Z,8.30
2022-11-23T16:18:24.653Z,8.47
2022-11-23T16:20:54.801Z,8.57
2022-11-23T16:23:24.809Z,9.30
2022-11-23T16:25:58.873Z,8.53
2022-11-23T16:28:30.359Z,8.43
2022-11-23T16:30:59.142Z,9.17
2022-11-23T16:33:30.189Z,9.20
2022-11-23T16:35:58.272Z,8.73
2022-11-23T16:38:26.457Z,9.10
2022-11-23T16:40:56.224Z,8.47
2022-11-23T16:43:24.315Z,8.37
2022-11-23T16:45:52.438Z,8.17
2022-11-23T16:48:40.979Z,8.33
2022-11-23T16:51:14.053Z,8.30
2022-11-23T16:54:11.794Z,8.53
2022-11-23T16:56:31.527Z,9.00
2022-11-23T16:58:59.400Z,9.10
2022-11-23T17:01:29.456Z,8.50
2022-11-23T17:03:58.840Z,9.03
2022-11-23T17:06:26.713Z,9.07
2022-11-23T17:09:03.180Z,8.77
2022-11-23T17:11:36.188Z,9.03
2022-11-23T17:14:05.410Z,8.97
2022-11-23T17:16:34.137Z,10.20
2022-11-23T17:19:03.509Z,10.10
2022-11-23T17:21:31.297Z,9.63
2022-11-23T17:23:59.255Z,9.27
2022-11-23T17:26:32.934Z,9.33
2022-11-23T17:29:03.370Z,10.17
2022-11-23T17:31:31.830Z,9.40
2022-11-23T17:33:59.825Z,9.60
2022-11-23T17:36:31.412Z,10.20
2022-11-23T17:38:59.586Z,10.00
2022-11-23T17:41:27.452Z,8.90
2022-11-23T17:43:55.537Z,9.90
2022-11-23T17:46:25.184Z,9.40
2022-11-23T17:49:02.177Z,9.47
2022-11-23T17:51:31.503Z,9.20
2022-11-23T17:53:59.343Z,10.17
2022-11-23T17:56:27.933Z,9.63
2022-11-23T17:58:55.877Z,10.03
2022-11-23T18:01:24.050Z,10.50
2022-11-23T18:03:52.188Z,10.23
2022-11-23T18:06:22.053Z,9.60
2022-11-23T18:08:52.715Z,9.53
2022-11-23T18:11:21.440Z,10.05
2022-11-23T18:13:50.394Z,10.20
2022-11-23T18:16:19.717Z,9.60
2022-11-23T18:18:47.840Z,9.93
2022-11-23T18:21:16.076Z,9.80
2022-11-23T18:23:44.151Z,10.33
2022-11-23T18:26:18.463Z,10.23
2022-11-23T18:28:46.628Z,9.87
2022-11-23T18:31:14.651Z,9.60
2022-11-23T18:33:42.971Z,10.33
2022-11-23T18:36:11.487Z,10.03
2022-11-23T18:38:40.346Z,10.20
2022-11-23T18:41:08.626Z,10.50
2022-11-23T18:43:37.899Z,10.13
2022-11-23T18:46:07.020Z,10.27
2022-11-23T18:48:35.290Z,10.60
2022-11-23T18:51:03.824Z,10.47
2022-11-23T18:53:33.084Z,10.03
2022-11-23T18:56:04.477Z,10.80
2022-11-23T18:58:33.806Z,10.97
2022-11-23T19:01:12.152Z,9.77
2022-11-23T19:03:41.582Z,10.60
2022-11-23T19:06:13.368Z,11.27
2022-11-23T19:08:42.485Z,10.03
2022-11-23T19:11:15.758Z,10.73
2022-11-23T19:13:44.764Z,11.03
2022-11-23T19:16:16.162Z,10.17
2022-11-23T19:18:45.083Z,10.70
2022-11-23T19:21:14.447Z,10.97
2022-11-23T19:23:42.423Z,10.73
2022-11-23T19:26:10.492Z,10.80
2022-11-23T19:28:39.854Z,11.13
2022-11-23T19:31:12.185Z,10.17
2022-11-23T19:33:41.491Z,10.33
2022-11-23T19:36:11.089Z,11.60
2022-11-23T19:38:39.071Z,10.73
2022-11-23T19:41:07.096Z,10.73
2022-11-23T19:43:35.325Z,10.43
2022-11-23T19:46:05.967Z,10.97
2022-11-23T19:48:35.321Z,11.03
2022-11-23T19:51:06.140Z,11.03
2022-11-23T19:53:36.070Z,10.83
2022-11-23T19:56:05.703Z,10.47
2022-11-23T19:58:35.122Z,11.33
2022-11-23T20:01:04.303Z,11.00
2022-11-23T20:03:35.275Z,11.10
2022-11-23T20:06:07.305Z,11.27
2022-11-23T20:08:35.470Z,10.87
2022-11-23T20:11:08.280Z,10.93
2022-11-23T20:13:36.233Z,10.77
2022-11-23T20:16:04.948Z,11.10
2022-11-23T20:18:32.887Z,10.83
2022-11-23T20:21:01.745Z,11.30
2022-11-23T20:23:31.211Z,11.40
2022-11-23T20:25:59.612Z,11.17
2022-11-23T20:28:27.623Z,11.77
2022-11-23T20:30:55.526Z,11.47
2022-11-23T20:33:23.351Z,11.27
2022-11-23T20:35:51.496Z,11.50
2022-11-23T20:38:19.297Z,11.73
2022-11-23T20:40:48.527Z,11.90
2022-11-23T20:43:16.333Z,12.27
2022-11-23T20:45:44.505Z,12.07
2022-11-23T20:48:12.820Z,11.23
2022-11-23T20:50:40.705Z,10.70
2022-11-23T20:53:08.479Z,10.87
2022-11-23T20:55:36.837Z,11.17
2022-11-23T20:58:06.710Z,11.27
2022-11-23T21:00:34.548Z,10.93
2022-11-23T21:03:02.382Z,11.20
2022-11-23T21:05:30.336Z,11.43
2022-11-23T21:07:58.225Z,11.40
2022-11-23T21:10:43.555Z,11.83
2022-11-23T21:13:48.600Z,11.03
2022-11-23T21:16:17.055Z,10.90
2022-11-23T21:18:44.871Z,11.30
2022-11-23T21:21:12.972Z,11.13
2022-11-23T21:23:40.856Z,11.30
2022-11-23T21:26:08.718Z,11.37
2022-11-23T21:28:37.840Z,11.33
2022-11-23T21:31:08.559Z,11.40
2022-11-23T21:33:37.134Z,10.90
2022-11-23T21:36:05.573Z,10.80
2022-11-23T21:38:35.227Z,11.77
2022-11-23T21:41:03.696Z,11.40
2022-11-23T21:43:32.179Z,10.67
2022-11-23T21:46:02.423Z,11.30
2022-11-23T21:48:30.753Z,10.90
2022-11-23T21:51:02.816Z,11.57
2022-11-23T21:53:31.529Z,10.23
2022-11-23T21:56:03.844Z,10.40
2022-11-23T21:58:31.905Z,11.73
2022-11-23T22:01:09.715Z,11.63
2022-11-23T22:03:38.350Z,10.90
2022-11-23T22:06:06.599Z,11.37
2022-11-23T22:08:35.206Z,11.03
2022-11-23T22:11:11.543Z,11.13
2022-11-23T22:13:40.181Z,11.13
2022-11-23T22:16:18.562Z,11.03
2022-11-23T22:18:51.373Z,10.27
2022-11-23T22:21:24.137Z,10.83
2022-11-23T22:23:52.060Z,10.57
2022-11-23T22:26:21.483Z,10.87
2022-11-23T22:28:51.438Z,10.60
2022-11-23T22:31:22.623Z,10.80
2022-11-23T22:33:51.019Z,10.83
2022-11-23T22:36:21.126Z,10.57
2022-11-23T22:38:49.618Z,10.47
2022-11-23T22:41:18.746Z,10.83
2022-11-23T22:43:47.425Z,10.53
2022-11-23T22:46:17.612Z,10.90
2022-11-23T22:48:48.197Z,11.20
2022-11-23T22:51:18.168Z,10.40
2022-11-23T22:53:46.260Z,10.63
2022-11-23T22:56:15.536Z,11.27
2022-11-23T22:58:44.362Z,10.33
2022-11-23T23:01:14.466Z,10.43
2022-11-23T23:03:43.534Z,10.47
2022-11-23T23:06:16.512Z,10.30
2022-11-23T23:08:45.546Z,10.87
2022-11-23T23:11:14.781Z,10.40
2022-11-23T23:13:43.513Z,10.53
2022-11-23T23:16:12.880Z,10.00
2022-11-23T23:18:41.284Z,11.23
2022-11-23T23:21:11.127Z,10.67
2022-11-23T23:23:42.089Z,11.47
2022-11-23T23:26:11.064Z,10.93
2022-11-23T23:28:39.136Z,10.80
2022-11-23T23:31:09.121Z,10.50
2022-11-23T23:33:37.175Z,10.63
2022-11-23T23:36:06.014Z,10.37
2022-11-23T23:38:34.422Z,10.33
2022-11-23T23:41:04.194Z,10.43
2022-11-23T23:43:32.590Z,10.13
2022-11-23T23:46:02.213Z,9.80
2022-11-23T23:48:31.820Z,10.60
2022-11-23T23:50:59.726Z,9.97
2022-11-23T23:53:27.570Z,9.40
2022-11-23T23:55:59.429Z,10.20
2022-11-23T23:58:29.759Z,9.80
